TimeEST,TemperatureF,Dew PointF,Humidity,Sea Level PressureIn,VisibilityMPH,Wind Direction,Wind SpeedMPH,Gust SpeedMPH,PrecipitationIn,Events,Conditions,WindDirDegrees,DateUTC
12:15 AM,46.4,44.6,93,30.14,10.0,NE,11.5,-,N/A,,Partly Cloudy,40,2013-01-03 05:15:00
12:35 AM,46.4,44.6,93,30.15,10.0,NE,9.2,-,N/A,,Scattered Clouds,40,2013-01-03 05:35:00
12:55 AM,46.4,44.6,93,30.14,10.0,NE,10.4,-,N/A,,Mostly Cloudy,40,2013-01-03 05:55:00
1:15 AM,46.4,44.6,93,30.14,10.0,NNE,9.2,-,N/A,,Scattered Clouds,30,2013-01-03 06:15:00
1:35 AM,44.6,42.8,93,30.12,10.0,NNE,10.4,-,N/A,,Clear,30,2013-01-03 06:35:00
1:55 AM,44.6,42.8,93,30.12,10.0,NE,6.9,-,N/A,,Clear,50,2013-01-03 06:55:00
2:15 AM,44.6,41.0,87,30.12,10.0,NNE,5.8,-,N/A,,Scattered Clouds,30,2013-01-03 07:15:00
2:35 AM,44.6,41.0,87,30.14,10.0,NNE,6.9,-,N/A,,Mostly Cloudy,20,2013-01-03 07:35:00
2:55 AM,44.6,41.0,87,30.13,10.0,NNE,9.2,-,N/A,,Overcast,30,2013-01-03 07:55:00
3:15 AM,44.6,41.0,87,30.13,10.0,NNE,6.9,-,N/A,,Overcast,30,2013-01-03 08:15:00
3:35 AM,44.6,41.0,87,30.13,10.0,NNE,5.8,-,N/A,,Overcast,30,2013-01-03 08:35:00
3:55 AM,44.6,42.8,93,30.13,10.0,NNE,6.9,-,N/A,,Overcast,20,2013-01-03 08:55:00
4:15 AM,44.6,39.2,81,30.15,10.0,North,9.2,-,N/A,,Overcast,350,2013-01-03 09:15:00
4:35 AM,44.6,42.8,93,30.14,10.0,NNE,8.1,-,N/A,,Overcast,30,2013-01-03 09:35:00
4:55 AM,44.6,42.8,93,30.15,10.0,NNE,6.9,-,N/A,,Overcast,30,2013-01-03 09:55:00
5:15 AM,44.6,42.8,93,30.15,10.0,NNE,5.8,-,N/A,,Overcast,20,2013-01-03 10:15:00
5:35 AM,44.6,41.0,87,30.15,10.0,NNE,4.6,-,N/A,,Overcast,20,2013-01-03 10:35:00
5:55 AM,44.6,42.8,93,30.15,10.0,North,8.1,-,N/A,,Overcast,10,2013-01-03 10:55:00
6:45 AM,44.6,41.0,87,30.16,10.0,NE,9.2,-,N/A,,Overcast,40,2013-01-03 11:45:00
6:50 AM,44.6,42.8,93,30.14,10.0,NNE,8.1,-,N/A,,Mostly Cloudy,30,2013-01-03 11:50:00
8:45 AM,42.8,41.0,93,30.19,6.0,ENE,8.1,-,N/A,,Overcast,60,2013-01-03 13:45:00
9:45 AM,42.8,42.8,100,30.20,5.0,NNE,6.9,-,N/A,Rain,Light Rain,30,2013-01-03 14:45:00
10:15 AM,42.8,42.8,100,30.20,5.0,NE,6.9,-,N/A,Rain,Light Rain,40,2013-01-03 15:15:00
11:45 AM,46.4,44.6,93,30.17,5.0,Calm,Calm,-,N/A,Rain,Light Rain,0,2013-01-03 16:45:00
12:45 PM,46.4,42.8,87,30.17,5.0,North,6.9,-,N/A,Rain,Light Rain,360,2013-01-03 17:45:00
1:03 PM,46.4,42.8,87,30.16,3.0,North,8.1,-,N/A,Rain,Light Rain,350,2013-01-03 18:03:00
1:45 PM,44.6,42.8,93,30.13,3.0,NNW,6.9,-,N/A,Rain,Light Rain,340,2013-01-03 18:45:00
2:50 PM,44.6,44.6,100,30.14,4.0,NNE,8.1,-,N/A,Rain,Light Rain,20,2013-01-03 19:50:00
3:45 PM,44.6,44.6,100,30.16,4.0,NNE,11.5,-,N/A,Rain,Light Rain,30,2013-01-03 20:45:00
4:45 PM,44.6,42.8,93,30.18,4.0,North,11.5,-,N/A,,Overcast,10,2013-01-03 21:45:00
5:45 PM,44.6,42.8,93,30.21,4.0,North,11.5,-,N/A,,Overcast,360,2013-01-03 22:45:00
6:45 PM,42.8,41.0,93,30.22,4.0,North,9.2,-,N/A,,Overcast,10,2013-01-03 23:45:00
7:50 PM,42.8,39.2,87,30.24,6.0,North,10.4,-,N/A,,Overcast,350,2013-01-04 00:50:00
8:45 PM,42.8,39.2,87,30.25,5.0,North,11.5,-,N/A,,Mostly Cloudy,350,2013-01-04 01:45:00
9:45 PM,41.0,37.4,87,30.27,7.0,North,9.2,-,N/A,,Mostly Cloudy,360,2013-01-04 02:45:00
10:55 PM,37.4,35.6,93,30.27,5.0,NNW,3.5,-,N/A,,Clear,340,2013-01-04 03:55:00
11:15 PM,35.6,33.8,93,30.27,3.0,NNW,4.6,-,N/A,,Clear,330,2013-01-04 04:15:00
11:35 PM,35.6,33.8,93,30.27,4.0,NNW,4.6,-,N/A,,Clear,330,2013-01-04 04:35:00
11:55 PM,37.4,35.6,93,30.27,4.0,NNW,4.6,-,N/A,,Clear,330,2013-01-04 04:55:00